首页
METAR-TAF:

METAR-TAF

机场 :

Lechfeld, 德国

纬度: 48-11N, 经度: 010-52E, 海拔: 555米

当前天气观测

该预报发布于22分钟前的03:20 UTC
风速18节,风向西,有时为28节阵风
温度 3°C
湿度 65%
气压 1022 hPa
能见度10公里或以上
少量云层高于2500英尺
多云层高于6000英尺

METAR: ETSL 210320Z 27018G28KT 9999 FEW025 BKN060 03/M03 Q1022 BLU

时间: 04:42 (03:42 UTC)

预报

该预报发布于11小时和37分钟前的16:05 UTC
预报有效从20日的 15点(UTC)到 20日的 24点(UTC)
风速10节,风向西南
能见度10公里或以上
少量云层高于4000英尺
多云层高于22000英尺
成为
从 20日的 22点(UTC)到 20日的 24点(UTC)
风速15节,风向西南,有时为25节阵风
能見度: 1620
散云层高于2000英尺
多云层高于4000英尺

TAF: ETSL 201605Z 2015/2024 23010KT 9999 NSW FEW040 BKN220 BECMG 2022/2024 22015G25KT 8000 NSW SCT020 BKN040 CANCEL 1620 BY ETGL

超过4000个机场的气象观测和天气预报(METAR&TAF报告)。

可查询的气象台以黄色和红色小点在地图上表示。

将鼠标移到小点上方,可查看气象台名称。

然后点击查看天气观测和预报。

如需切换地图:点击带黑十字的绿色按钮放大地图;点击带横线的绿色按钮缩小地图;或者点击绿色箭头查看邻近地区的地图。


METAR-TAF: